sensor_id;sensor_type;location;lat;lon;timestamp;P1;durP1;ratioP1;P2;durP2;ratioP2
6860;SDS011;3469;47.060;15.460;2022-07-06T00:01:45;5.00;;;4.60;;
6860;SDS011;3469;47.060;15.460;2022-07-06T00:04:14;4.90;;;4.50;;
6860;SDS011;3469;47.060;15.460;2022-07-06T00:06:42;4.87;;;4.57;;
6860;SDS011;3469;47.060;15.460;2022-07-06T00:09:10;5.20;;;4.80;;
6860;SDS011;3469;47.060;15.460;2022-07-06T00:11:39;5.37;;;4.97;;
6860;SDS011;3469;47.060;15.460;2022-07-06T00:14:07;7.07;;;4.37;;
6860;SDS011;3469;47.060;15.460;2022-07-06T00:16:35;4.93;;;4.57;;
6860;SDS011;3469;47.060;15.460;2022-07-06T00:19:05;4.90;;;4.57;;
6860;SDS011;3469;47.060;15.460;2022-07-06T00:21:34;6.77;;;5.17;;
6860;SDS011;3469;47.060;15.460;2022-07-06T00:24:03;5.33;;;4.83;;
6860;SDS011;3469;47.060;15.460;2022-07-06T00:26:31;5.77;;;5.27;;
6860;SDS011;3469;47.060;15.460;2022-07-06T00:29:00;6.90;;;4.90;;
6860;SDS011;3469;47.060;15.460;2022-07-06T00:31:29;5.77;;;5.27;;
6860;SDS011;3469;47.060;15.460;2022-07-06T00:33:57;5.13;;;4.63;;
6860;SDS011;3469;47.060;15.460;2022-07-06T00:36:27;4.77;;;4.33;;
6860;SDS011;3469;47.060;15.460;2022-07-06T00:38:55;5.40;;;4.90;;
6860;SDS011;3469;47.060;15.460;2022-07-06T00:41:24;5.30;;;4.90;;
6860;SDS011;3469;47.060;15.460;2022-07-06T00:43:54;5.30;;;4.90;;
6860;SDS011;3469;47.060;15.460;2022-07-06T00:46:25;5.40;;;5.00;;
6860;SDS011;3469;47.060;15.460;2022-07-06T00:48:55;5.23;;;4.73;;
6860;SDS011;3469;47.060;15.460;2022-07-06T00:51:25;5.37;;;4.87;;
6860;SDS011;3469;47.060;15.460;2022-07-06T00:53:57;5.73;;;5.33;;
6860;SDS011;3469;47.060;15.460;2022-07-06T00:56:26;5.20;;;4.80;;
6860;SDS011;3469;47.060;15.460;2022-07-06T00:58:57;5.70;;;5.30;;
6860;SDS011;3469;47.060;15.460;2022-07-06T01:01:25;5.70;;;5.30;;
6860;SDS011;3469;47.060;15.460;2022-07-06T01:03:54;5.50;;;5.00;;
6860;SDS011;3469;47.060;15.460;2022-07-06T01:06:24;6.10;;;5.60;;
6860;SDS011;3469;47.060;15.460;2022-07-06T01:08:54;5.80;;;5.30;;
6860;SDS011;3469;47.060;15.460;2022-07-06T01:11:23;6.20;;;5.57;;
6860;SDS011;3469;47.060;15.460;2022-07-06T01:13:51;7.53;;;5.80;;
6860;SDS011;3469;47.060;15.460;2022-07-06T01:16:19;6.13;;;5.70;;
6860;SDS011;3469;47.060;15.460;2022-07-06T01:18:48;5.77;;;5.37;;
6860;SDS011;3469;47.060;15.460;2022-07-06T01:21:18;6.00;;;5.37;;
6860;SDS011;3469;47.060;15.460;2022-07-06T01:23:46;5.20;;;4.77;;
6860;SDS011;3469;47.060;15.460;2022-07-06T01:26:16;8.77;;;6.10;;
6860;SDS011;3469;47.060;15.460;2022-07-06T01:28:46;6.57;;;5.93;;
6860;SDS011;3469;47.060;15.460;2022-07-06T01:31:15;6.03;;;5.20;;
6860;SDS011;3469;47.060;15.460;2022-07-06T01:33:44;6.17;;;5.70;;
6860;SDS011;3469;47.060;15.460;2022-07-06T01:36:12;6.20;;;5.60;;
6860;SDS011;3469;47.060;15.460;2022-07-06T01:38:46;7.00;;;6.50;;
6860;SDS011;3469;47.060;15.460;2022-07-06T01:41:15;6.47;;;5.87;;
6860;SDS011;3469;47.060;15.460;2022-07-06T01:43:44;6.63;;;6.10;;
6860;SDS011;3469;47.060;15.460;2022-07-06T01:46:13;7.20;;;6.60;;
6860;SDS011;3469;47.060;15.460;2022-07-06T01:48:41;6.23;;;5.73;;
6860;SDS011;3469;47.060;15.460;2022-07-06T01:51:10;6.40;;;5.90;;
6860;SDS011;3469;47.060;15.460;2022-07-06T01:53:40;7.10;;;6.50;;
6860;SDS011;3469;47.060;15.460;2022-07-06T01:56:10;7.00;;;6.40;;
6860;SDS011;3469;47.060;15.460;2022-07-06T01:58:40;6.90;;;6.40;;
6860;SDS011;3469;47.060;15.460;2022-07-06T02:01:09;7.57;;;6.03;;
6860;SDS011;3469;47.060;15.460;2022-07-06T02:03:38;5.37;;;4.97;;
6860;SDS011;3469;47.060;15.460;2022-07-06T02:06:08;6.93;;;6.33;;
6860;SDS011;3469;47.060;15.460;2022-07-06T02:08:38;6.20;;;5.70;;
6860;SDS011;3469;47.060;15.460;2022-07-06T02:11:07;6.40;;;5.90;;
6860;SDS011;3469;47.060;15.460;2022-07-06T02:13:39;6.90;;;6.40;;
6860;SDS011;3469;47.060;15.460;2022-07-06T02:16:10;6.70;;;6.20;;
6860;SDS011;3469;47.060;15.460;2022-07-06T02:18:38;7.13;;;6.63;;
6860;SDS011;3469;47.060;15.460;2022-07-06T02:21:07;9.60;;;6.37;;
6860;SDS011;3469;47.060;15.460;2022-07-06T02:23:36;6.80;;;6.20;;
6860;SDS011;3469;47.060;15.460;2022-07-06T02:26:04;7.10;;;6.50;;
6860;SDS011;3469;47.060;15.460;2022-07-06T02:28:33;6.77;;;5.93;;
6860;SDS011;3469;47.060;15.460;2022-07-06T02:31:03;5.90;;;5.50;;
6860;SDS011;3469;47.060;15.460;2022-07-06T02:33:32;6.50;;;6.00;;
6860;SDS011;3469;47.060;15.460;2022-07-06T02:36:00;6.33;;;5.83;;
6860;SDS011;3469;47.060;15.460;2022-07-06T02:38:28;6.80;;;6.30;;
6860;SDS011;3469;47.060;15.460;2022-07-06T02:40:57;6.63;;;6.03;;
6860;SDS011;3469;47.060;15.460;2022-07-06T02:43:26;6.60;;;6.10;;
6860;SDS011;3469;47.060;15.460;2022-07-06T02:45:54;6.70;;;6.20;;
6860;SDS011;3469;47.060;15.460;2022-07-06T02:48:24;7.03;;;6.40;;
6860;SDS011;3469;47.060;15.460;2022-07-06T02:50:53;7.23;;;6.63;;
6860;SDS011;3469;47.060;15.460;2022-07-06T02:53:22;6.80;;;6.17;;
6860;SDS011;3469;47.060;15.460;2022-07-06T02:55:55;7.47;;;6.87;;
6860;SDS011;3469;47.060;15.460;2022-07-06T02:58:23;7.00;;;6.40;;
6860;SDS011;3469;47.060;15.460;2022-07-06T03:00:52;6.93;;;6.33;;
6860;SDS011;3469;47.060;15.460;2022-07-06T03:03:21;6.77;;;6.27;;
6860;SDS011;3469;47.060;15.460;2022-07-06T03:05:51;7.20;;;6.60;;
6860;SDS011;3469;47.060;15.460;2022-07-06T03:08:20;7.10;;;6.50;;
6860;SDS011;3469;47.060;15.460;2022-07-06T03:10:49;7.00;;;6.40;;
6860;SDS011;3469;47.060;15.460;2022-07-06T03:13:17;7.13;;;6.53;;
6860;SDS011;3469;47.060;15.460;2022-07-06T03:15:46;6.63;;;6.13;;
6860;SDS011;3469;47.060;15.460;2022-07-06T03:18:14;7.23;;;6.57;;
6860;SDS011;3469;47.060;15.460;2022-07-06T03:20:43;6.67;;;6.17;;
6860;SDS011;3469;47.060;15.460;2022-07-06T03:23:16;7.23;;;6.73;;
6860;SDS011;3469;47.060;15.460;2022-07-06T03:25:44;9.10;;;6.90;;
6860;SDS011;3469;47.060;15.460;2022-07-06T03:28:13;7.10;;;6.50;;
6860;SDS011;3469;47.060;15.460;2022-07-06T03:30:42;7.03;;;6.37;;
6860;SDS011;3469;47.060;15.460;2022-07-06T03:33:10;7.73;;;7.03;;
6860;SDS011;3469;47.060;15.460;2022-07-06T03:35:40;6.60;;;6.10;;
6860;SDS011;3469;47.060;15.460;2022-07-06T03:38:10;7.43;;;6.77;;
6860;SDS011;3469;47.060;15.460;2022-07-06T03:40:41;6.17;;;5.67;;
6860;SDS011;3469;47.060;15.460;2022-07-06T03:43:10;6.73;;;6.20;;
6860;SDS011;3469;47.060;15.460;2022-07-06T03:45:40;6.60;;;6.07;;
6860;SDS011;3469;47.060;15.460;2022-07-06T03:48:08;8.40;;;6.50;;
6860;SDS011;3469;47.060;15.460;2022-07-06T03:50:39;8.30;;;7.00;;
6860;SDS011;3469;47.060;15.460;2022-07-06T03:53:08;7.13;;;6.43;;
6860;SDS011;3469;47.060;15.460;2022-07-06T03:55:36;7.37;;;6.20;;
6860;SDS011;3469;47.060;15.460;2022-07-06T03:58:09;7.13;;;5.70;;
6860;SDS011;3469;47.060;15.460;2022-07-06T04:00:39;7.97;;;6.00;;
6860;SDS011;3469;47.060;15.460;2022-07-06T04:03:14;6.23;;;5.83;;
6860;SDS011;3469;47.060;15.460;2022-07-06T04:05:47;6.30;;;5.80;;
6860;SDS011;3469;47.060;15.460;2022-07-06T04:08:16;6.50;;;6.00;;
6860;SDS011;3469;47.060;15.460;2022-07-06T04:10:50;6.23;;;5.83;;
6860;SDS011;3469;47.060;15.460;2022-07-06T04:13:19;6.17;;;5.70;;
6860;SDS011;3469;47.060;15.460;2022-07-06T04:15:48;6.73;;;6.10;;
6860;SDS011;3469;47.060;15.460;2022-07-06T04:18:17;5.70;;;5.30;;
6860;SDS011;3469;47.060;15.460;2022-07-06T04:20:50;6.37;;;5.87;;
6860;SDS011;3469;47.060;15.460;2022-07-06T04:23:18;6.73;;;6.10;;
6860;SDS011;3469;47.060;15.460;2022-07-06T04:25:47;6.77;;;6.10;;
6860;SDS011;3469;47.060;15.460;2022-07-06T04:28:15;5.80;;;5.30;;
6860;SDS011;3469;47.060;15.460;2022-07-06T04:30:45;11.73;;;6.17;;
6860;SDS011;3469;47.060;15.460;2022-07-06T04:33:17;6.20;;;5.60;;
6860;SDS011;3469;47.060;15.460;2022-07-06T04:35:47;5.83;;;5.40;;
6860;SDS011;3469;47.060;15.460;2022-07-06T04:38:21;6.20;;;5.60;;
6860;SDS011;3469;47.060;15.460;2022-07-06T04:40:55;7.70;;;5.97;;
6860;SDS011;3469;47.060;15.460;2022-07-06T04:43:23;5.80;;;5.30;;
6860;SDS011;3469;47.060;15.460;2022-07-06T04:45:53;5.53;;;5.20;;
6860;SDS011;3469;47.060;15.460;2022-07-06T04:48:21;6.90;;;6.20;;
6860;SDS011;3469;47.060;15.460;2022-07-06T04:50:51;6.10;;;5.37;;
6860;SDS011;3469;47.060;15.460;2022-07-06T04:53:25;6.50;;;5.43;;
6860;SDS011;3469;47.060;15.460;2022-07-06T04:55:54;6.67;;;6.07;;
6860;SDS011;3469;47.060;15.460;2022-07-06T04:58:24;7.03;;;6.43;;
6860;SDS011;3469;47.060;15.460;2022-07-06T05:00:54;6.33;;;5.80;;
6860;SDS011;3469;47.060;15.460;2022-07-06T05:03:24;10.23;;;5.47;;
6860;SDS011;3469;47.060;15.460;2022-07-06T05:05:53;6.60;;;6.00;;
6860;SDS011;3469;47.060;15.460;2022-07-06T05:08:21;5.30;;;4.90;;
6860;SDS011;3469;47.060;15.460;2022-07-06T05:10:51;6.43;;;5.63;;
6860;SDS011;3469;47.060;15.460;2022-07-06T05:13:21;5.90;;;5.40;;
6860;SDS011;3469;47.060;15.460;2022-07-06T05:15:49;6.63;;;5.90;;
6860;SDS011;3469;47.060;15.460;2022-07-06T05:18:20;8.73;;;5.40;;
6860;SDS011;3469;47.060;15.460;2022-07-06T05:20:49;7.97;;;4.90;;
6860;SDS011;3469;47.060;15.460;2022-07-06T05:23:20;5.77;;;5.27;;
6860;SDS011;3469;47.060;15.460;2022-07-06T05:25:48;5.87;;;5.30;;
6860;SDS011;3469;47.060;15.460;2022-07-06T05:28:17;6.20;;;5.53;;
6860;SDS011;3469;47.060;15.460;2022-07-06T05:30:45;6.40;;;5.23;;
6860;SDS011;3469;47.060;15.460;2022-07-06T05:33:14;7.50;;;5.37;;
6860;SDS011;3469;47.060;15.460;2022-07-06T05:35:44;5.00;;;4.60;;
6860;SDS011;3469;47.060;15.460;2022-07-06T05:38:22;8.77;;;7.63;;
6860;SDS011;3469;47.060;15.460;2022-07-06T05:40:52;5.73;;;4.37;;
6860;SDS011;3469;47.060;15.460;2022-07-06T05:43:21;4.63;;;4.20;;
6860;SDS011;3469;47.060;15.460;2022-07-06T05:45:50;5.07;;;4.57;;
6860;SDS011;3469;47.060;15.460;2022-07-06T05:48:21;6.87;;;4.90;;
6860;SDS011;3469;47.060;15.460;2022-07-06T05:51:08;4.20;;;3.90;;
6860;SDS011;3469;47.060;15.460;2022-07-06T05:53:40;5.50;;;4.50;;
6860;SDS011;3469;47.060;15.460;2022-07-06T05:56:08;6.30;;;4.70;;
6860;SDS011;3469;47.060;15.460;2022-07-06T05:58:38;8.83;;;5.07;;
6860;SDS011;3469;47.060;15.460;2022-07-06T06:01:06;4.80;;;4.40;;
6860;SDS011;3469;47.060;15.460;2022-07-06T06:03:37;7.33;;;5.13;;
6860;SDS011;3469;47.060;15.460;2022-07-06T06:06:06;5.63;;;3.90;;
6860;SDS011;3469;47.060;15.460;2022-07-06T06:08:36;5.53;;;4.20;;
6860;SDS011;3469;47.060;15.460;2022-07-06T06:11:04;7.00;;;4.03;;
6860;SDS011;3469;47.060;15.460;2022-07-06T06:13:38;5.13;;;4.63;;
6860;SDS011;3469;47.060;15.460;2022-07-06T06:16:07;6.93;;;5.43;;
6860;SDS011;3469;47.060;15.460;2022-07-06T06:18:35;4.90;;;3.77;;
6860;SDS011;3469;47.060;15.460;2022-07-06T06:21:08;4.10;;;3.80;;
6860;SDS011;3469;47.060;15.460;2022-07-06T06:23:38;4.07;;;3.67;;
6860;SDS011;3469;47.060;15.460;2022-07-06T06:26:07;4.73;;;4.30;;
6860;SDS011;3469;47.060;15.460;2022-07-06T06:28:35;4.97;;;4.37;;
6860;SDS011;3469;47.060;15.460;2022-07-06T06:31:04;5.43;;;3.80;;
6860;SDS011;3469;47.060;15.460;2022-07-06T06:33:32;4.40;;;4.00;;
6860;SDS011;3469;47.060;15.460;2022-07-06T06:36:00;5.80;;;4.23;;
6860;SDS011;3469;47.060;15.460;2022-07-06T06:38:29;6.87;;;3.20;;
6860;SDS011;3469;47.060;15.460;2022-07-06T06:40:59;4.07;;;3.60;;
6860;SDS011;3469;47.060;15.460;2022-07-06T06:43:29;5.50;;;3.30;;
6860;SDS011;3469;47.060;15.460;2022-07-06T06:46:20;3.97;;;3.60;;
6860;SDS011;3469;47.060;15.460;2022-07-06T06:48:49;7.40;;;3.90;;
6860;SDS011;3469;47.060;15.460;2022-07-06T06:51:17;4.63;;;3.67;;
6860;SDS011;3469;47.060;15.460;2022-07-06T06:53:45;4.80;;;4.30;;
6860;SDS011;3469;47.060;15.460;2022-07-06T06:56:15;4.63;;;3.57;;
6860;SDS011;3469;47.060;15.460;2022-07-06T06:58:43;4.90;;;4.00;;
6860;SDS011;3469;47.060;15.460;2022-07-06T07:01:31;5.90;;;4.27;;
6860;SDS011;3469;47.060;15.460;2022-07-06T07:04:00;6.40;;;5.13;;
6860;SDS011;3469;47.060;15.460;2022-07-06T07:06:29;4.90;;;4.50;;
6860;SDS011;3469;47.060;15.460;2022-07-06T07:08:57;5.70;;;4.40;;
6860;SDS011;3469;47.060;15.460;2022-07-06T07:11:27;8.47;;;4.83;;
6860;SDS011;3469;47.060;15.460;2022-07-06T07:13:55;7.60;;;4.30;;
6860;SDS011;3469;47.060;15.460;2022-07-06T07:16:24;4.13;;;3.83;;
6860;SDS011;3469;47.060;15.460;2022-07-06T07:18:53;7.23;;;4.10;;
6860;SDS011;3469;47.060;15.460;2022-07-06T07:21:21;5.00;;;3.67;;
6860;SDS011;3469;47.060;15.460;2022-07-06T07:23:50;7.77;;;3.87;;
6860;SDS011;3469;47.060;15.460;2022-07-06T07:26:18;4.67;;;4.23;;
6860;SDS011;3469;47.060;15.460;2022-07-06T07:28:48;6.00;;;4.90;;
6860;SDS011;3469;47.060;15.460;2022-07-06T07:31:17;6.80;;;4.70;;
6860;SDS011;3469;47.060;15.460;2022-07-06T07:33:45;8.93;;;3.93;;
6860;SDS011;3469;47.060;15.460;2022-07-06T07:36:14;6.03;;;3.97;;
6860;SDS011;3469;47.060;15.460;2022-07-06T07:38:42;6.70;;;3.97;;
6860;SDS011;3469;47.060;15.460;2022-07-06T07:41:11;8.13;;;3.97;;
6860;SDS011;3469;47.060;15.460;2022-07-06T07:43:40;7.67;;;3.70;;
6860;SDS011;3469;47.060;15.460;2022-07-06T07:46:10;7.47;;;3.83;;
6860;SDS011;3469;47.060;15.460;2022-07-06T07:48:39;5.20;;;4.00;;
6860;SDS011;3469;47.060;15.460;2022-07-06T07:51:08;4.33;;;3.50;;
6860;SDS011;3469;47.060;15.460;2022-07-06T07:53:36;6.17;;;3.90;;
6860;SDS011;3469;47.060;15.460;2022-07-06T07:56:04;4.20;;;2.93;;
6860;SDS011;3469;47.060;15.460;2022-07-06T07:58:33;10.13;;;2.87;;
6860;SDS011;3469;47.060;15.460;2022-07-06T08:01:02;4.10;;;3.37;;
6860;SDS011;3469;47.060;15.460;2022-07-06T08:03:32;4.07;;;3.30;;
6860;SDS011;3469;47.060;15.460;2022-07-06T08:06:00;7.40;;;4.27;;
6860;SDS011;3469;47.060;15.460;2022-07-06T08:08:28;9.53;;;3.10;;
6860;SDS011;3469;47.060;15.460;2022-07-06T08:10:57;4.97;;;2.50;;
6860;SDS011;3469;47.060;15.460;2022-07-06T08:13:44;3.07;;;2.50;;
6860;SDS011;3469;47.060;15.460;2022-07-06T08:16:12;2.30;;;2.10;;
6860;SDS011;3469;47.060;15.460;2022-07-06T08:18:42;4.83;;;1.83;;
6860;SDS011;3469;47.060;15.460;2022-07-06T08:21:11;4.20;;;2.00;;
6860;SDS011;3469;47.060;15.460;2022-07-06T08:23:55;2.30;;;1.73;;
6860;SDS011;3469;47.060;15.460;2022-07-06T08:26:26;1.90;;;1.80;;
6860;SDS011;3469;47.060;15.460;2022-07-06T08:28:55;2.40;;;2.13;;
6860;SDS011;3469;47.060;15.460;2022-07-06T08:31:23;1.50;;;1.40;;
6860;SDS011;3469;47.060;15.460;2022-07-06T08:34:15;1.50;;;1.40;;
6860;SDS011;3469;47.060;15.460;2022-07-06T08:36:43;1.47;;;1.37;;
6860;SDS011;3469;47.060;15.460;2022-07-06T08:39:12;1.90;;;1.70;;
6860;SDS011;3469;47.060;15.460;2022-07-06T08:41:41;1.30;;;1.20;;
6860;SDS011;3469;47.060;15.460;2022-07-06T08:44:09;1.57;;;1.40;;
6860;SDS011;3469;47.060;15.460;2022-07-06T08:46:38;1.40;;;1.30;;
6860;SDS011;3469;47.060;15.460;2022-07-06T08:49:08;1.43;;;1.33;;
6860;SDS011;3469;47.060;15.460;2022-07-06T08:51:39;2.00;;;1.60;;
6860;SDS011;3469;47.060;15.460;2022-07-06T08:54:08;1.97;;;1.30;;
6860;SDS011;3469;47.060;15.460;2022-07-06T08:56:38;1.80;;;1.30;;
6860;SDS011;3469;47.060;15.460;2022-07-06T08:59:14;1.40;;;1.30;;
6860;SDS011;3469;47.060;15.460;2022-07-06T09:01:42;4.40;;;1.60;;
6860;SDS011;3469;47.060;15.460;2022-07-06T09:04:11;2.90;;;1.47;;
6860;SDS011;3469;47.060;15.460;2022-07-06T09:06:41;1.73;;;1.20;;
6860;SDS011;3469;47.060;15.460;2022-07-06T09:09:11;1.60;;;1.50;;
6860;SDS011;3469;47.060;15.460;2022-07-06T09:11:46;3.33;;;1.90;;
6860;SDS011;3469;47.060;15.460;2022-07-06T09:14:14;1.83;;;1.63;;
6860;SDS011;3469;47.060;15.460;2022-07-06T09:16:42;4.30;;;1.40;;
6860;SDS011;3469;47.060;15.460;2022-07-06T09:19:11;4.27;;;1.97;;
6860;SDS011;3469;47.060;15.460;2022-07-06T09:21:41;2.13;;;1.53;;
6860;SDS011;3469;47.060;15.460;2022-07-06T09:24:11;2.30;;;1.70;;
6860;SDS011;3469;47.060;15.460;2022-07-06T09:26:40;1.53;;;1.33;;
6860;SDS011;3469;47.060;15.460;2022-07-06T09:29:08;4.07;;;1.60;;
6860;SDS011;3469;47.060;15.460;2022-07-06T09:31:38;2.07;;;1.37;;
6860;SDS011;3469;47.060;15.460;2022-07-06T09:34:07;4.00;;;1.60;;
6860;SDS011;3469;47.060;15.460;2022-07-06T09:36:48;2.87;;;1.83;;
6860;SDS011;3469;47.060;15.460;2022-07-06T09:39:20;1.93;;;1.50;;
6860;SDS011;3469;47.060;15.460;2022-07-06T09:41:52;3.00;;;1.70;;
6860;SDS011;3469;47.060;15.460;2022-07-06T09:44:21;1.30;;;1.20;;
6860;SDS011;3469;47.060;15.460;2022-07-06T09:46:51;3.40;;;1.73;;
6860;SDS011;3469;47.060;15.460;2022-07-06T09:49:20;1.63;;;1.53;;
6860;SDS011;3469;47.060;15.460;2022-07-06T09:51:54;2.17;;;1.40;;
6860;SDS011;3469;47.060;15.460;2022-07-06T09:54:23;3.47;;;1.47;;
6860;SDS011;3469;47.060;15.460;2022-07-06T09:56:52;1.73;;;1.40;;
6860;SDS011;3469;47.060;15.460;2022-07-06T09:59:22;3.57;;;1.40;;
6860;SDS011;3469;47.060;15.460;2022-07-06T10:01:52;3.30;;;1.33;;
6860;SDS011;3469;47.060;15.460;2022-07-06T10:04:23;2.90;;;1.60;;
6860;SDS011;3469;47.060;15.460;2022-07-06T10:06:54;1.80;;;1.60;;
6860;SDS011;3469;47.060;15.460;2022-07-06T10:09:23;1.53;;;1.33;;
6860;SDS011;3469;47.060;15.460;2022-07-06T10:11:54;4.07;;;1.60;;
6860;SDS011;3469;47.060;15.460;2022-07-06T10:14:24;2.27;;;1.50;;
6860;SDS011;3469;47.060;15.460;2022-07-06T10:16:54;3.10;;;1.60;;
6860;SDS011;3469;47.060;15.460;2022-07-06T10:19:24;6.30;;;1.40;;
6860;SDS011;3469;47.060;15.460;2022-07-06T10:21:55;2.80;;;1.40;;
6860;SDS011;3469;47.060;15.460;2022-07-06T10:24:24;2.90;;;1.23;;
6860;SDS011;3469;47.060;15.460;2022-07-06T10:26:53;3.20;;;1.70;;
6860;SDS011;3469;47.060;15.460;2022-07-06T10:29:23;1.80;;;1.53;;
6860;SDS011;3469;47.060;15.460;2022-07-06T10:31:52;1.43;;;1.33;;
6860;SDS011;3469;47.060;15.460;2022-07-06T10:34:21;1.73;;;1.60;;
6860;SDS011;3469;47.060;15.460;2022-07-06T10:36:50;2.70;;;1.37;;
6860;SDS011;3469;47.060;15.460;2022-07-06T10:39:32;1.20;;;1.10;;
6860;SDS011;3469;47.060;15.460;2022-07-06T10:45:10;1.17;;;1.03;;
6860;SDS011;3469;47.060;15.460;2022-07-06T10:47:39;1.70;;;0.90;;
6860;SDS011;3469;47.060;15.460;2022-07-06T10:50:08;0.90;;;0.90;;
6860;SDS011;3469;47.060;15.460;2022-07-06T10:52:49;1.20;;;1.03;;
6860;SDS011;3469;47.060;15.460;2022-07-06T10:55:29;1.27;;;0.97;;
6860;SDS011;3469;47.060;15.460;2022-07-06T10:58:02;1.27;;;1.17;;
6860;SDS011;3469;47.060;15.460;2022-07-06T11:00:50;0.80;;;0.80;;
6860;SDS011;3469;47.060;15.460;2022-07-06T11:03:32;1.20;;;1.10;;
6860;SDS011;3469;47.060;15.460;2022-07-06T11:06:08;2.60;;;1.00;;
6860;SDS011;3469;47.060;15.460;2022-07-06T11:08:52;3.10;;;1.30;;
6860;SDS011;3469;47.060;15.460;2022-07-06T11:11:26;2.43;;;1.27;;
6860;SDS011;3469;47.060;15.460;2022-07-06T11:14:05;4.93;;;1.30;;
6860;SDS011;3469;47.060;15.460;2022-07-06T11:16:36;2.20;;;1.30;;
6860;SDS011;3469;47.060;15.460;2022-07-06T11:19:07;1.23;;;1.13;;
6860;SDS011;3469;47.060;15.460;2022-07-06T11:21:38;2.03;;;1.20;;
6860;SDS011;3469;47.060;15.460;2022-07-06T11:24:14;4.33;;;1.17;;
6860;SDS011;3469;47.060;15.460;2022-07-06T11:26:46;1.30;;;1.00;;
6860;SDS011;3469;47.060;15.460;2022-07-06T11:29:15;2.60;;;1.00;;
6860;SDS011;3469;47.060;15.460;2022-07-06T11:31:45;1.43;;;1.33;;
6860;SDS011;3469;47.060;15.460;2022-07-06T11:34:17;1.47;;;1.20;;
6860;SDS011;3469;47.060;15.460;2022-07-06T11:36:46;1.03;;;0.80;;
6860;SDS011;3469;47.060;15.460;2022-07-06T11:39:14;1.00;;;0.90;;
6860;SDS011;3469;47.060;15.460;2022-07-06T11:41:44;1.27;;;1.00;;
6860;SDS011;3469;47.060;15.460;2022-07-06T11:44:17;2.23;;;1.20;;
6860;SDS011;3469;47.060;15.460;2022-07-06T11:46:46;1.93;;;0.87;;
6860;SDS011;3469;47.060;15.460;2022-07-06T11:49:14;2.00;;;1.03;;
6860;SDS011;3469;47.060;15.460;2022-07-06T11:51:44;1.00;;;0.90;;
6860;SDS011;3469;47.060;15.460;2022-07-06T11:54:13;1.43;;;1.10;;
6860;SDS011;3469;47.060;15.460;2022-07-06T11:56:47;0.90;;;0.87;;
6860;SDS011;3469;47.060;15.460;2022-07-06T11:59:20;1.93;;;1.00;;
6860;SDS011;3469;47.060;15.460;2022-07-06T12:01:50;1.90;;;1.10;;
6860;SDS011;3469;47.060;15.460;2022-07-06T12:04:26;1.53;;;1.10;;
6860;SDS011;3469;47.060;15.460;2022-07-06T12:06:54;1.67;;;1.10;;
6860;SDS011;3469;47.060;15.460;2022-07-06T12:09:22;2.60;;;1.30;;
6860;SDS011;3469;47.060;15.460;2022-07-06T12:11:52;1.50;;;1.10;;
6860;SDS011;3469;47.060;15.460;2022-07-06T12:14:20;2.67;;;1.30;;
6860;SDS011;3469;47.060;15.460;2022-07-06T12:16:49;1.83;;;1.20;;
6860;SDS011;3469;47.060;15.460;2022-07-06T12:19:19;1.83;;;1.27;;
6860;SDS011;3469;47.060;15.460;2022-07-06T12:21:50;3.23;;;1.10;;
6860;SDS011;3469;47.060;15.460;2022-07-06T12:24:20;1.37;;;1.17;;
6860;SDS011;3469;47.060;15.460;2022-07-06T12:26:49;1.43;;;0.93;;
6860;SDS011;3469;47.060;15.460;2022-07-06T12:29:19;2.20;;;1.00;;
6860;SDS011;3469;47.060;15.460;2022-07-06T12:31:50;1.20;;;1.07;;
6860;SDS011;3469;47.060;15.460;2022-07-06T12:34:19;3.30;;;0.97;;
6860;SDS011;3469;47.060;15.460;2022-07-06T12:36:50;2.30;;;1.40;;
6860;SDS011;3469;47.060;15.460;2022-07-06T12:39:19;0.90;;;0.90;;
6860;SDS011;3469;47.060;15.460;2022-07-06T12:41:50;1.53;;;1.00;;
6860;SDS011;3469;47.060;15.460;2022-07-06T12:44:21;1.40;;;0.97;;
6860;SDS011;3469;47.060;15.460;2022-07-06T12:46:50;4.03;;;1.07;;
6860;SDS011;3469;47.060;15.460;2022-07-06T12:49:29;2.37;;;1.40;;
6860;SDS011;3469;47.060;15.460;2022-07-06T12:51:58;1.00;;;0.90;;
6860;SDS011;3469;47.060;15.460;2022-07-06T12:54:28;1.43;;;1.10;;
6860;SDS011;3469;47.060;15.460;2022-07-06T12:57:02;1.20;;;1.10;;
6860;SDS011;3469;47.060;15.460;2022-07-06T12:59:44;1.70;;;1.20;;
6860;SDS011;3469;47.060;15.460;2022-07-06T13:02:18;1.43;;;1.10;;
6860;SDS011;3469;47.060;15.460;2022-07-06T13:05:08;2.40;;;1.40;;
6860;SDS011;3469;47.060;15.460;2022-07-06T13:07:42;3.30;;;1.17;;
6860;SDS011;3469;47.060;15.460;2022-07-06T13:10:13;1.70;;;1.00;;
6860;SDS011;3469;47.060;15.460;2022-07-06T13:13:07;2.70;;;1.20;;
6860;SDS011;3469;47.060;15.460;2022-07-06T13:15:37;4.13;;;1.47;;
6860;SDS011;3469;47.060;15.460;2022-07-06T13:18:09;2.03;;;1.00;;
6860;SDS011;3469;47.060;15.460;2022-07-06T13:20:39;5.43;;;1.80;;
6860;SDS011;3469;47.060;15.460;2022-07-06T13:23:08;2.40;;;1.20;;
6860;SDS011;3469;47.060;15.460;2022-07-06T13:25:36;1.20;;;1.10;;
6860;SDS011;3469;47.060;15.460;2022-07-06T13:28:04;1.13;;;1.03;;
6860;SDS011;3469;47.060;15.460;2022-07-06T13:30:33;1.33;;;1.13;;
6860;SDS011;3469;47.060;15.460;2022-07-06T13:33:03;3.60;;;1.37;;
6860;SDS011;3469;47.060;15.460;2022-07-06T13:35:31;4.37;;;1.43;;
6860;SDS011;3469;47.060;15.460;2022-07-06T13:37:59;2.87;;;0.90;;
6860;SDS011;3469;47.060;15.460;2022-07-06T13:40:28;1.33;;;1.10;;
6860;SDS011;3469;47.060;15.460;2022-07-06T13:42:56;1.50;;;1.30;;
6860;SDS011;3469;47.060;15.460;2022-07-06T13:45:24;1.40;;;1.30;;
6860;SDS011;3469;47.060;15.460;2022-07-06T13:47:53;2.10;;;1.20;;
6860;SDS011;3469;47.060;15.460;2022-07-06T13:50:22;1.30;;;1.10;;
6860;SDS011;3469;47.060;15.460;2022-07-06T13:52:51;1.00;;;0.90;;
6860;SDS011;3469;47.060;15.460;2022-07-06T13:55:20;2.17;;;1.20;;
6860;SDS011;3469;47.060;15.460;2022-07-06T13:57:48;4.07;;;1.40;;
6860;SDS011;3469;47.060;15.460;2022-07-06T14:00:16;2.20;;;0.90;;
6860;SDS011;3469;47.060;15.460;2022-07-06T14:02:45;1.50;;;1.40;;
6860;SDS011;3469;47.060;15.460;2022-07-06T14:05:14;1.10;;;0.83;;
6860;SDS011;3469;47.060;15.460;2022-07-06T14:07:43;1.37;;;1.03;;
6860;SDS011;3469;47.060;15.460;2022-07-06T14:10:12;2.20;;;1.00;;
6860;SDS011;3469;47.060;15.460;2022-07-06T14:12:40;1.57;;;1.20;;
6860;SDS011;3469;47.060;15.460;2022-07-06T14:15:09;2.87;;;1.10;;
6860;SDS011;3469;47.060;15.460;2022-07-06T14:17:37;2.70;;;1.67;;
6860;SDS011;3469;47.060;15.460;2022-07-06T14:20:06;1.57;;;1.13;;
6860;SDS011;3469;47.060;15.460;2022-07-06T14:22:35;1.40;;;1.30;;
6860;SDS011;3469;47.060;15.460;2022-07-06T14:25:05;2.33;;;0.90;;
6860;SDS011;3469;47.060;15.460;2022-07-06T14:27:34;1.80;;;1.33;;
6860;SDS011;3469;47.060;15.460;2022-07-06T14:30:03;1.40;;;1.03;;
6860;SDS011;3469;47.060;15.460;2022-07-06T14:32:32;1.63;;;1.37;;
6860;SDS011;3469;47.060;15.460;2022-07-06T14:35:00;3.40;;;1.43;;
6860;SDS011;3469;47.060;15.460;2022-07-06T14:37:29;3.47;;;1.30;;
6860;SDS011;3469;47.060;15.460;2022-07-06T14:39:57;1.57;;;0.90;;
6860;SDS011;3469;47.060;15.460;2022-07-06T14:42:27;2.40;;;1.40;;
6860;SDS011;3469;47.060;15.460;2022-07-06T14:44:56;2.60;;;1.20;;
6860;SDS011;3469;47.060;15.460;2022-07-06T14:47:24;2.40;;;1.40;;
6860;SDS011;3469;47.060;15.460;2022-07-06T14:49:53;2.67;;;1.43;;
6860;SDS011;3469;47.060;15.460;2022-07-06T14:52:21;1.03;;;0.93;;
6860;SDS011;3469;47.060;15.460;2022-07-06T14:54:49;1.40;;;1.17;;
6860;SDS011;3469;47.060;15.460;2022-07-06T14:57:17;2.20;;;1.23;;
6860;SDS011;3469;47.060;15.460;2022-07-06T14:59:47;1.00;;;0.90;;
6860;SDS011;3469;47.060;15.460;2022-07-06T15:02:16;1.30;;;1.07;;
6860;SDS011;3469;47.060;15.460;2022-07-06T15:04:44;1.47;;;1.13;;
6860;SDS011;3469;47.060;15.460;2022-07-06T15:07:13;1.40;;;1.30;;
6860;SDS011;3469;47.060;15.460;2022-07-06T15:09:41;2.13;;;1.07;;
6860;SDS011;3469;47.060;15.460;2022-07-06T15:12:10;1.53;;;1.10;;
6860;SDS011;3469;47.060;15.460;2022-07-06T15:14:38;1.87;;;1.20;;
6860;SDS011;3469;47.060;15.460;2022-07-06T15:17:08;1.27;;;1.10;;
6860;SDS011;3469;47.060;15.460;2022-07-06T15:19:36;3.07;;;1.10;;
6860;SDS011;3469;47.060;15.460;2022-07-06T15:22:04;2.20;;;1.40;;